Saturday, August 1, 2015, 8:11 PM EDT

KMUI, Muir Army Air Field / Indiantown

Location: Jonestown, PA, United States Lat: 40.433
Local Time: 8:11 PM EDT ( 0:11 GMT) Lon: -76.567
Time Zone: US/Eastern Elev: 488 ft

Show me the last for .
Show Decoded

2015-08-01 19:58 METAR KMUI 012358Z AUTO 28004KT 10SM CLR 25/15 A2986 RMK AO2 SLP112 T02500153
                 10292 20250 53006 $ =
2015-08-01 18:58 METAR KMUI 012258Z AUTO 25008KT 10SM CLR 28/14 A2984 RMK AO2 SLP104 T02790143 $
                 =
2015-08-01 17:58 METAR KMUI 012158Z AUTO 26011KT 10SM SCT120 29/14 A2984 RMK AO2 SLP104 T02880138
                 $ =
2015-08-01 16:58 METAR KMUI 012058Z AUTO VRB06KT 10SM SCT110 28/14 A2984 RMK AO2 SLP105 T02840139
                 56005 $ =
2015-08-01 15:58 METAR KMUI 011958Z AUTO 29008KT 10SM FEW110 28/14 A2984 RMK AO2 SLP105 T02820139
                 $ =
2015-08-01 14:58 METAR KMUI 011858Z AUTO 29008KT 10SM FEW100 29/14 A2985 RMK AO2 SLP108 T02860138
                 $ =
2015-08-01 13:58 METAR KMUI 011758Z AUTO 27007KT 240V320 10SM CLR 29/14 A2986 RMK AO2 SLP111
                 T02900136 10290 20190 58002 $ =
2015-08-01 12:58 METAR KMUI 011658Z AUTO 28009KT 10SM FEW065 28/13 A2987 RMK AO2 SLP115 T02800129
                 $ =
2015-08-01 11:58 METAR KMUI 011558Z AUTO 28009G18KT 10SM CLR 28/13 A2988 RMK AO2 SLP118 T02780131
                 $ =
2015-08-01 10:58 METAR KMUI 011458Z AUTO 29009G17KT 10SM CLR 27/13 A2986 RMK AO2 SLP111 T02710132
                 $ =
2015-08-01 08:58 METAR KMUI 011258Z AUTO 23005KT 10SM CLR 23/18 A2986 RMK AO2 SLP111 T02280180 $
                 =
2015-08-01 07:58 METAR KMUI 011158Z AUTO 00000KT 10SM BKN100 BKN120 19/18 A2985 RMK AO2 SLP108
                 T01890176 10192 20161 52008 $ =
2015-08-01 06:58 METAR KMUI 011058Z AUTO 00000KT 10SM BKN100 OVC120 18/17 A2985 RMK AO2 SLP108
                 T01750168 $ =
2015-08-01 05:58 METAR KMUI 010958Z AUTO 09001KT 10SM CLR 17/16 A2983 RMK AO2 SLP101 T01680160 $
                 =
2015-08-01 04:58 METAR KMUI 010858Z AUTO 00000KT 10SM BKN110 16/16 A2983 RMK AO2 SLP101 T01630158
                 57007 $ =
2015-08-01 03:58 METAR KMUI 010758Z AUTO 00000KT 9SM CLR 16/16 A2983 RMK AO2 SLP101 T01630157 $ =
2015-08-01 02:58 METAR KMUI 010658Z AUTO 06001KT 10SM CLR 17/16 A2984 RMK AO2 SLP104 T01670161 $
                 =
2015-08-01 01:58 METAR KMUI 010558Z AUTO 34002KT 10SM CLR 18/16 A2985 RMK AO2 SLP108 T01750164
                 10258 20175 58004 $ =
2015-08-01 00:58 METAR KMUI 010458Z AUTO 00000KT 10SM CLR 18/17 A2986 RMK AO2 SLP111 T01820168
                 403010154 $ =
2015-07-31 23:58 METAR KMUI 010358Z AUTO 00000KT 10SM CLR 19/17 A2987 RMK AO2 SLP114 T01910170 $
                 =
2015-07-31 22:58 METAR KMUI 010258Z AUTO 07002KT 10SM CLR 20/17 A2987 RMK AO2 SLP114 T02000172
                 52009 $ =
2015-07-31 21:58 METAR KMUI 010158Z AUTO 36002KT 10SM CLR 21/18 A2986 RMK AO2 SLP111 T02070175 $
                 =
2015-07-31 20:58 METAR KMUI 010058Z AUTO 24004KT 10SM CLR 25/16 A2984 RMK AO2 SLP104 T02470161 $
                 =

Support USWX by starting your Amazon purchase here.